Wednesday, June 20, 2018, 5:06 PM EDT
Back to Local

KMRB, Martinsburg Eastern Wv Reg

Location: Martinsburg, WV, United States Lat: 39.4
Local Time: 5:06 PM EDT (21:06 GMT) Lon: -77.983
Time Zone: US/Eastern Elev: 557 ft

Show me the last for .
Show Decoded

2018-06-20 16:53 METAR KMRB 202053Z 13005KT 10SM CLR 27/20 A2978 RMK AO2 LTG DSNT SW AND NW
                 SLP080 T02720200 56021 =
2018-06-20 15:53 METAR KMRB 201953Z VRB05KT 10SM CLR 27/20 A2980 RMK AO2 SLP085 T02720200 =
2018-06-20 14:53 METAR KMRB 201853Z 01006KT 10SM SCT070 27/19 A2984 RMK AO2 LTG DSNT SW SLP098
                 T02670194 =
2018-06-20 13:53 METAR KMRB 201753Z VRB04KT 10SM FEW031 26/18 A2985 RMK AO2 SLP102 60000
                 T02560183 10256 20217 58014 =
2018-06-20 12:53 METAR KMRB 201653Z 05005KT 10SM SCT050 25/17 A2987 RMK AO2 RAE1558 SLP109 P0000
                 T02500172 =
2018-06-20 12:33 METAR KMRB 201633Z 03006KT 10SM SCT030 BKN035 OVC055 24/17 A2988 RMK AO2 RAE1558
                 P0000 T02440167 =
2018-06-20 11:53 METAR KMRB 201553Z 02005KT 10SM -RA OVC026 23/18 A2989 RMK AO2 RAB48 SLP116
                 P0000 T02280178 =
2018-06-20 11:41 METAR KMRB 201541Z 00000KT 10SM BKN026 OVC032 23/18 A2989 RMK AO2 T02330178 =
2018-06-20 10:53 METAR KMRB 201453Z 00000KT 10SM FEW025 BKN043 OVC050 23/17 A2989 RMK AO2 SLP116
                 T02280167 58006 =
2018-06-20 10:23 METAR KMRB 201423Z 00000KT 10SM SCT026 SCT039 OVC050 23/17 A2989 RMK AO2
                 T02330167 =
2018-06-20 09:53 METAR KMRB 201353Z 00000KT 10SM OVC026 23/16 A2990 RMK AO2 SLP118 T02280156 =
2018-06-20 09:38 METAR KMRB 201338Z 00000KT 10SM BKN026 BKN060 OVC080 23/16 A2989 RMK AO2
                 T02330156 =
2018-06-20 08:53 METAR KMRB 201253Z 00000KT 10SM SCT060 OVC075 22/15 A2990 RMK AO2 SLP120
                 T02220150 =
2018-06-20 07:53 METAR KMRB 201153Z 02003KT 10SM OVC030 22/14 A2991 RMK AO2 SLP122 70019
                 T02170144 10228 20211 51006 =
2018-06-20 06:53 METAR KMRB 201053Z 02004KT 10SM BKN031 OVC044 21/15 A2990 RMK AO2 SLP120
                 T02110150 =
2018-06-20 05:53 METAR KMRB 200953Z AUTO 01003KT 10SM BKN035 OVC043 21/17 A2989 RMK AO2 SLP118
                 T02110172 =
2018-06-20 04:53 METAR KMRB 200853Z AUTO 02005KT 10SM SCT013 OVC032 22/19 A2989 RMK AO2 SLP115
                 T02170189 55000 =
2018-06-20 04:45 METAR KMRB 200845Z AUTO 01004KT 10SM SCT009 OVC032 22/19 A2988 RMK AO2 T02170194
                 =
2018-06-20 04:05 METAR KMRB 200805Z AUTO 03005KT 9SM OVC005 22/21 A2989 RMK AO2 CIG 002V008
                 T02220211 =
2018-06-20 03:53 METAR KMRB 200753Z AUTO 02004KT 7SM OVC003 23/22 A2988 RMK AO2 CIG 002V006
                 SLP114 T02280217 =
2018-06-20 02:53 METAR KMRB 200653Z AUTO 01004KT 7SM BKN004 OVC046 23/22 A2988 RMK AO2 SLP113
                 T02280217 =
2018-06-20 02:28 METAR KMRB 200628Z AUTO 00000KT 8SM FEW004 SCT047 OVC060 23/22 A2988 RMK AO2
                 T02280222 =
2018-06-20 01:53 METAR KMRB 200553Z AUTO 00000KT 6SM BR OVC050 23/22 A2989 RMK AO2 SLP115
                 T02280222 10261 20222 56004 =
2018-06-20 00:53 METAR KMRB 200453Z AUTO 00000KT 6SM BR OVC049 23/22 A2989 RMK AO2 SLP115
                 T02280222 403280222 =
2018-06-19 23:53 METAR KMRB 200353Z AUTO 00000KT 5SM BR OVC047 22/22 A2989 RMK AO2 SLP117
                 T02220222 =
2018-06-19 22:53 METAR KMRB 200253Z AUTO 00000KT 6SM BR BKN050 23/22 A2990 RMK AO2 SLP118
                 T02280222 51009 =
2018-06-19 21:53 METAR KMRB 200153Z 00000KT 10SM FEW050 23/22 A2989 RMK AO2 SLP116 T02330222 =
2018-06-19 20:53 METAR KMRB 200053Z 00000KT 10SM BKN055 26/22 A2989 RMK AO2 SLP114 T02560222 =
2018-06-19 19:53 METAR KMRB 192353Z 34003KT 10SM FEW055 26/22 A2987 RMK AO2 SLP109 60008
                 T02610222 10278 20239 53000 =
2018-06-19 18:53 METAR KMRB 192253Z 31005KT 10SM CLR 27/22 A2985 RMK AO2 RAB2154E03 SLP102 P0000
                 T02670217 =
2018-06-19 17:53 METAR KMRB 192153Z 26005KT 10SM BKN041 OVC060 24/22 A2986 RMK AO2 RAB12E34
                 SLP107 P0000 T02440222 =

Support USWX by starting your Amazon purchase here.